Time;durP1;ratioP1;P1;durP2;ratioP2;P2;SDS_P1;SDS_P2;PMS_P1;PMS_P2;Temp;Humidity;BMP_temperature;BMP_pressure;BME280_temperature;BME280_humidity;BME280_pressure;Samples;Min_cycle;Max_cycle;Signal;HPM_P1;HPM_P2
2024/04/16 00:01:18;;;;;;;4.87;2.90;;;16.90;75.10;;;;;;5245083;27;20250;-58
2024/04/16 00:03:46;;;;;;;4.23;3.50;;;16.80;75.10;;;;;;5214284;27;20267;-57
2024/04/16 00:06:15;;;;;;;5.67;3.70;;;16.80;75.30;;;;;;5189319;27;20255;-57
2024/04/16 00:08:46;;;;;;;4.03;2.97;;;16.70;75.10;;;;;;5243134;27;20289;-58
2024/04/16 00:11:14;;;;;;;6.33;3.27;;;16.70;75.20;;;;;;5213374;27;20262;-58
2024/04/16 00:13:42;;;;;;;3.67;3.33;;;16.60;75.20;;;;;;5223549;27;20321;-57
2024/04/16 00:16:42;;;;;;;6.47;3.10;;;16.60;75.80;;;;;;5215971;27;20362;-58
2024/04/16 00:19:11;;;;;;;6.17;3.50;;;16.60;76.50;;;;;;5233697;27;20266;-57
2024/04/16 00:21:40;;;;;;;7.27;3.23;;;16.60;76.80;;;;;;5215670;27;20559;-58
2024/04/16 00:24:08;;;;;;;4.70;3.47;;;16.50;77.10;;;;;;5241734;27;20288;-58
2024/04/16 00:26:36;;;;;;;4.73;3.60;;;16.60;77.30;;;;;;5238079;27;20257;-57
2024/04/16 00:29:04;;;;;;;7.47;3.80;;;16.50;77.40;;;;;;5184077;27;20711;-58
2024/04/16 00:31:32;;;;;;;6.47;3.77;;;16.50;77.40;;;;;;5212562;27;20332;-58
2024/04/16 00:34:00;;;;;;;5.30;3.77;;;16.50;77.40;;;;;;5239118;27;20354;-57
2024/04/16 00:36:27;;;;;;;4.83;3.40;;;16.40;77.40;;;;;;5189761;27;20288;-57
2024/04/16 00:38:55;;;;;;;4.33;3.53;;;16.40;77.60;;;;;;5209200;27;20357;-57
2024/04/16 00:41:23;;;;;;;5.90;3.60;;;16.30;77.60;;;;;;5211265;27;20303;-58
2024/04/16 00:43:51;;;;;;;3.53;3.00;;;16.30;77.90;;;;;;5243276;27;20319;-57
2024/04/16 00:46:18;;;;;;;5.40;3.63;;;16.30;78.40;;;;;;5217529;27;20262;-57
2024/04/16 00:48:46;;;;;;;5.07;3.60;;;16.30;78.60;;;;;;5241041;27;20344;-57
2024/04/16 00:51:14;;;;;;;6.00;3.83;;;16.30;78.80;;;;;;5233476;27;20248;-58
2024/04/16 00:53:42;;;;;;;4.17;3.30;;;16.30;78.80;;;;;;5208182;27;20251;-57
2024/04/16 00:56:11;;;;;;;8.57;3.83;;;16.30;78.70;;;;;;5215652;27;20248;-58
2024/04/16 00:58:44;;;;;;;4.17;3.13;;;16.30;78.70;;;;;;5183189;27;20249;-57
2024/04/16 01:01:11;;;;;;;6.63;4.73;;;16.30;78.80;;;;;;5239624;27;20250;-57
2024/04/16 01:03:43;;;;;;;4.20;3.77;;;16.30;78.90;;;;;;5243960;27;20339;-57
2024/04/16 01:06:11;;;;;;;6.50;3.77;;;16.30;79.00;;;;;;5205884;27;20299;-58
2024/04/16 01:08:39;;;;;;;6.20;2.70;;;16.30;79.00;;;;;;5194734;27;20697;-58
2024/04/16 01:11:07;;;;;;;5.47;2.77;;;16.30;79.10;;;;;;5214366;27;20310;-57
2024/04/16 01:13:34;;;;;;;5.43;3.40;;;16.30;79.20;;;;;;5210080;27;20306;-57
2024/04/16 01:16:02;;;;;;;3.67;3.37;;;16.30;79.40;;;;;;5187999;27;20252;-58
2024/04/16 01:18:29;;;;;;;5.93;3.30;;;16.30;79.40;;;;;;5238935;27;20295;-58
2024/04/16 01:20:57;;;;;;;4.83;3.83;;;16.30;79.40;;;;;;5243493;27;20359;-58
2024/04/16 01:23:25;;;;;;;3.60;3.20;;;16.30;79.40;;;;;;5208697;27;20262;-58
2024/04/16 01:25:54;;;;;;;5.53;3.40;;;16.30;79.60;;;;;;5202576;27;20705;-58
2024/04/16 01:28:23;;;;;;;7.23;3.73;;;16.30;79.80;;;;;;5204852;27;20726;-58
2024/04/16 01:30:52;;;;;;;6.23;3.87;;;16.30;79.90;;;;;;5216016;27;20343;-58
2024/04/16 01:33:20;;;;;;;5.73;3.33;;;16.30;80.10;;;;;;5247329;27;20244;-57
2024/04/16 01:35:48;;;;;;;7.27;3.60;;;16.30;80.50;;;;;;5244351;27;20245;-58
2024/04/16 01:38:17;;;;;;;3.80;3.07;;;16.30;80.80;;;;;;5190221;27;20340;-58
2024/04/16 01:40:44;;;;;;;4.70;3.17;;;16.30;80.80;;;;;;5218079;27;20248;-57
2024/04/16 01:43:12;;;;;;;5.53;3.90;;;16.30;81.00;;;;;;5216640;27;20600;-57
2024/04/16 01:45:41;;;;;;;7.03;3.33;;;16.30;81.00;;;;;;5244600;27;20255;-57
2024/04/16 01:48:08;;;;;;;5.53;3.53;;;16.30;80.80;;;;;;5208094;27;20364;-58
2024/04/16 01:50:36;;;;;;;8.77;3.57;;;16.40;80.50;;;;;;5242775;27;20588;-58
2024/04/16 01:53:04;;;;;;;6.87;3.17;;;16.40;80.30;;;;;;5217724;27;20281;-57
2024/04/16 01:55:35;;;;;;;6.83;3.30;;;16.30;80.20;;;;;;5186753;27;20274;-58
2024/04/16 01:58:03;;;;;;;6.00;3.93;;;16.40;80.20;;;;;;5214549;27;20714;-58
2024/04/16 02:00:31;;;;;;;5.90;2.77;;;16.40;79.90;;;;;;5242430;27;20248;-59
2024/04/16 02:03:02;;;;;;;4.67;3.13;;;16.40;79.90;;;;;;5242786;27;20245;-58
2024/04/16 02:05:30;;;;;;;6.60;3.40;;;16.40;79.90;;;;;;5245444;27;20252;-58
2024/04/16 02:07:57;;;;;;;6.60;3.50;;;16.40;79.60;;;;;;5242888;27;20254;-58
2024/04/16 02:10:24;;;;;;;6.43;3.70;;;16.40;79.40;;;;;;5246899;27;20258;-58
2024/04/16 02:12:52;;;;;;;5.70;3.10;;;16.30;79.20;;;;;;5213132;27;20252;-58
2024/04/16 02:15:20;;;;;;;7.10;3.03;;;16.40;79.20;;;;;;5214740;27;20318;-58
2024/04/16 02:17:47;;;;;;;5.77;3.30;;;16.40;79.30;;;;;;5244920;27;20852;-58
2024/04/16 02:20:15;;;;;;;5.90;2.97;;;16.30;79.30;;;;;;5246430;27;20245;-58
2024/04/16 02:22:44;;;;;;;8.33;3.60;;;16.40;79.60;;;;;;5213747;27;20570;-59
2024/04/16 02:25:12;;;;;;;7.43;3.40;;;16.40;79.80;;;;;;5239456;27;20256;-59
2024/04/16 02:27:39;;;;;;;6.43;3.27;;;16.40;79.90;;;;;;5242772;27;20357;-58
2024/04/16 02:30:07;;;;;;;7.60;3.50;;;16.40;79.70;;;;;;5245491;27;20290;-59
2024/04/16 02:32:36;;;;;;;7.80;4.17;;;16.40;79.70;;;;;;5226840;27;20254;-58
2024/04/16 02:35:04;;;;;;;7.77;3.30;;;16.40;79.90;;;;;;5192879;27;20259;-58
2024/04/16 02:37:32;;;;;;;8.33;3.93;;;16.40;79.90;;;;;;5245562;27;20244;-59
2024/04/16 02:40:00;;;;;;;6.00;3.30;;;16.30;79.90;;;;;;5215645;27;20266;-59
2024/04/16 02:42:28;;;;;;;8.67;3.20;;;16.40;80.00;;;;;;5239874;27;20272;-59
2024/04/16 02:44:56;;;;;;;6.50;3.83;;;16.40;80.30;;;;;;5239161;27;20704;-58
2024/04/16 02:47:24;;;;;;;5.47;3.70;;;16.40;80.50;;;;;;5203435;27;20623;-58
2024/04/16 02:49:51;;;;;;;8.27;4.07;;;16.40;80.50;;;;;;5244708;27;20288;-58
2024/04/16 02:52:19;;;;;;;4.20;3.80;;;16.30;80.30;;;;;;5241383;27;20251;-58
2024/04/16 02:54:48;;;;;;;4.87;3.50;;;16.40;80.40;;;;;;5208441;27;20313;-58
2024/04/16 02:57:15;;;;;;;7.93;3.83;;;16.30;80.40;;;;;;5244528;27;20249;-59
2024/04/16 02:59:46;;;;;;;8.63;3.57;;;16.30;80.60;;;;;;5186520;27;20268;-59
2024/04/16 03:02:14;;;;;;;3.93;3.07;;;16.30;80.70;;;;;;5244557;27;20255;-59
2024/04/16 03:04:42;;;;;;;5.03;3.37;;;16.30;80.70;;;;;;5241644;27;20259;-58
2024/04/16 03:07:09;;;;;;;8.90;4.83;;;16.30;80.80;;;;;;5243266;27;20299;-58
2024/04/16 03:09:37;;;;;;;7.87;3.33;;;16.30;80.90;;;;;;5243964;27;20255;-58
2024/04/16 03:12:04;;;;;;;10.00;4.20;;;16.30;80.80;;;;;;5245638;27;20294;-58
2024/04/16 03:14:32;;;;;;;5.53;4.13;;;16.20;80.60;;;;;;5243475;27;20260;-58
2024/04/16 03:17:00;;;;;;;3.63;3.23;;;16.20;80.50;;;;;;5218541;27;20580;-59
2024/04/16 03:19:28;;;;;;;5.93;4.07;;;16.20;80.60;;;;;;5213802;27;20813;-58
2024/04/16 03:21:55;;;;;;;4.70;4.30;;;16.20;80.80;;;;;;5212115;27;20691;-58
2024/04/16 03:24:23;;;;;;;9.50;4.53;;;16.10;80.90;;;;;;5245642;27;20280;-58
2024/04/16 03:26:51;;;;;;;7.80;4.00;;;16.10;81.10;;;;;;5215509;27;20265;-58
2024/04/16 03:29:19;;;;;;;9.73;4.30;;;16.10;81.20;;;;;;5204447;27;20257;-59
2024/04/16 03:31:47;;;;;;;19.93;4.70;;;16.00;81.20;;;;;;5241342;27;20602;-59
2024/04/16 03:34:14;;;;;;;9.07;4.00;;;16.00;81.80;;;;;;5235445;27;20253;-58
2024/04/16 03:36:42;;;;;;;8.00;3.80;;;16.00;82.30;;;;;;5202882;27;20352;-58
2024/04/16 03:39:09;;;;;;;4.77;3.83;;;15.90;82.50;;;;;;5244401;27;20295;-59
2024/04/16 03:41:37;;;;;;;5.57;3.87;;;15.90;82.60;;;;;;5209470;27;20328;-58
2024/04/16 03:44:06;;;;;;;6.97;3.83;;;15.80;82.80;;;;;;5211393;27;20295;-58
2024/04/16 03:46:34;;;;;;;8.77;4.37;;;15.80;82.70;;;;;;5184153;27;20262;-59
2024/04/16 03:49:01;;;;;;;6.17;4.70;;;15.70;82.40;;;;;;5241674;27;20249;-58
2024/04/16 03:51:29;;;;;;;7.27;3.83;;;15.60;82.20;;;;;;5215085;27;20346;-58
2024/04/16 03:53:56;;;;;;;5.53;3.70;;;15.60;82.10;;;;;;5247104;27;20944;-58
2024/04/16 03:56:23;;;;;;;6.90;4.70;;;15.50;82.30;;;;;;5237155;27;20335;-58
2024/04/16 03:59:15;;;;;;;5.27;4.43;;;15.40;82.30;;;;;;5242718;27;20301;-58
2024/04/16 04:01:42;;;;;;;7.27;4.03;;;15.40;82.60;;;;;;5225658;27;20312;-58
2024/04/16 04:04:11;;;;;;;10.30;4.77;;;15.30;83.00;;;;;;5241526;27;20299;-58
2024/04/16 04:06:38;;;;;;;6.40;4.27;;;15.20;83.20;;;;;;5244080;27;20301;-58
2024/04/16 04:09:06;;;;;;;4.50;4.10;;;15.10;83.30;;;;;;5238432;27;20266;-58
2024/04/16 04:11:33;;;;;;;6.47;4.60;;;15.10;83.70;;;;;;5240950;27;20347;-58
2024/04/16 04:14:01;;;;;;;6.37;4.80;;;15.00;83.60;;;;;;5214061;27;20261;-59
2024/04/16 04:16:30;;;;;;;6.60;4.67;;;14.90;83.40;;;;;;5217560;27;20758;-58
2024/04/16 04:18:58;;;;;;;7.37;4.63;;;14.90;83.70;;;;;;5215805;27;20260;-58
2024/04/16 04:21:26;;;;;;;5.37;4.40;;;14.90;84.10;;;;;;5208748;27;20330;-58
2024/04/16 04:23:54;;;;;;;12.60;4.70;;;14.90;84.50;;;;;;5215152;27;20282;-58
2024/04/16 04:26:23;;;;;;;5.33;4.83;;;14.80;84.50;;;;;;5211259;27;20289;-58
2024/04/16 04:28:50;;;;;;;13.23;5.93;;;14.80;84.40;;;;;;5215666;27;20304;-59
2024/04/16 04:31:19;;;;;;;7.30;4.77;;;14.70;84.00;;;;;;5209912;27;20928;-59
2024/04/16 04:33:49;;;;;;;6.73;4.33;;;14.70;84.20;;;;;;5210571;27;20340;-59
2024/04/16 04:36:17;;;;;;;9.77;4.73;;;14.60;84.60;;;;;;5244745;27;20248;-58
2024/04/16 04:38:45;;;;;;;6.17;4.60;;;14.60;85.00;;;;;;5209091;27;20593;-59
2024/04/16 04:41:13;;;;;;;6.63;4.50;;;14.60;85.50;;;;;;5207666;27;20243;-58
2024/04/16 04:43:41;;;;;;;7.40;5.10;;;14.60;85.50;;;;;;5214635;27;20256;-58
2024/04/16 04:46:10;;;;;;;8.40;5.17;;;14.50;84.90;;;;;;5214565;27;20888;-59
2024/04/16 04:48:38;;;;;;;7.30;5.30;;;14.50;85.00;;;;;;5213568;27;20306;-59
2024/04/16 04:51:05;;;;;;;7.70;5.17;;;14.50;85.30;;;;;;5241331;27;20714;-59
2024/04/16 04:53:33;;;;;;;11.37;5.17;;;14.50;85.60;;;;;;5238511;27;20246;-59
2024/04/16 04:56:01;;;;;;;7.73;5.00;;;14.50;86.20;;;;;;5218402;27;20695;-58
2024/04/16 04:58:29;;;;;;;10.23;4.97;;;14.50;86.50;;;;;;5203545;27;20760;-58
2024/04/16 05:00:57;;;;;;;8.13;4.90;;;14.50;86.70;;;;;;5243674;27;20258;-58
2024/04/16 05:03:24;;;;;;;10.07;5.13;;;14.50;86.60;;;;;;5213761;27;20255;-59
2024/04/16 05:05:52;;;;;;;7.33;4.60;;;14.50;86.60;;;;;;5218528;27;20299;-59
2024/04/16 05:08:20;;;;;;;6.90;4.40;;;14.50;86.70;;;;;;5216114;27;20317;-58
2024/04/16 05:10:51;;;;;;;10.03;5.30;;;14.50;86.80;;;;;;5169029;27;20274;-59
2024/04/16 05:13:20;;;;;;;16.10;5.90;;;14.50;87.20;;;;;;5244602;27;20332;-58
2024/04/16 05:15:49;;;;;;;5.67;5.00;;;14.60;87.40;;;;;;5177027;27;20258;-58
2024/04/16 05:18:17;;;;;;;9.73;5.90;;;14.60;87.70;;;;;;5239989;27;20574;-58
2024/04/16 05:20:48;;;;;;;5.40;4.30;;;14.60;87.90;;;;;;5239895;27;20320;-58
2024/04/16 05:23:15;;;;;;;5.53;4.60;;;14.60;88.10;;;;;;5246717;27;20701;-59
2024/04/16 05:25:54;;;;;;;10.73;4.53;;;14.70;88.20;;;;;;5198337;27;20286;-59
2024/04/16 05:28:22;;;;;;;5.23;4.40;;;14.80;88.50;;;;;;5239123;27;20253;-58
2024/04/16 05:30:50;;;;;;;6.47;4.83;;;14.90;88.60;;;;;;5238764;27;20295;-59
2024/04/16 05:33:18;;;;;;;6.57;5.20;;;15.00;88.60;;;;;;5244128;27;20352;-58
2024/04/16 05:35:45;;;;;;;8.70;5.23;;;15.10;88.30;;;;;;5216252;27;20252;-58
2024/04/16 05:38:13;;;;;;;6.37;4.73;;;15.20;88.50;;;;;;5246844;27;20248;-58
2024/04/16 05:40:41;;;;;;;7.10;4.53;;;15.30;88.90;;;;;;5244330;27;20245;-59
2024/04/16 05:43:09;;;;;;;5.87;4.80;;;15.50;89.10;;;;;;5189352;27;20258;-58
2024/04/16 05:45:37;;;;;;;9.27;4.80;;;15.60;89.40;;;;;;5222115;27;20257;-59
2024/04/16 05:48:04;;;;;;;9.43;5.63;;;15.70;89.50;;;;;;5217529;27;20293;-58
2024/04/16 05:50:32;;;;;;;11.23;4.70;;;15.80;89.70;;;;;;5245914;27;20308;-58
2024/04/16 05:53:00;;;;;;;15.63;5.77;;;15.90;89.70;;;;;;5246029;27;20251;-58
2024/04/16 05:55:28;;;;;;;5.83;4.60;;;16.20;89.70;;;;;;5246465;27;20248;-61
2024/04/16 05:57:57;;;;;;;9.67;4.37;;;16.40;89.60;;;;;;5246423;27;20240;-58
2024/04/16 06:00:25;;;;;;;10.60;5.67;;;16.60;89.30;;;;;;5243593;27;20254;-59
2024/04/16 06:02:53;;;;;;;7.77;5.33;;;16.90;88.90;;;;;;5184152;27;20309;-59
2024/04/16 06:05:20;;;;;;;8.07;5.03;;;17.10;88.70;;;;;;5212682;27;20552;-59
2024/04/16 06:07:49;;;;;;;9.37;4.63;;;17.40;88.80;;;;;;5245975;27;20313;-58
2024/04/16 06:10:16;;;;;;;9.17;5.00;;;17.60;88.70;;;;;;5243287;27;20354;-59
2024/04/16 06:12:44;;;;;;;6.20;4.73;;;17.90;88.20;;;;;;5244559;27;20319;-58
2024/04/16 06:15:11;;;;;;;7.37;4.80;;;18.10;87.10;;;;;;5242361;27;20264;-58
2024/04/16 06:17:40;;;;;;;9.20;4.87;;;18.30;86.20;;;;;;5215891;27;20789;-58
2024/04/16 06:20:09;;;;;;;11.30;5.13;;;18.50;85.80;;;;;;5245675;27;20247;-59
2024/04/16 06:22:37;;;;;;;12.33;5.43;;;18.60;85.40;;;;;;5245887;27;20805;-58
2024/04/16 06:25:07;;;;;;;11.67;5.37;;;18.70;85.20;;;;;;5246044;27;20255;-59
2024/04/16 06:27:35;;;;;;;7.10;4.70;;;18.70;84.80;;;;;;5245869;27;20638;-58
2024/04/16 06:30:03;;;;;;;8.23;4.37;;;18.80;84.90;;;;;;5216865;27;20244;-59
2024/04/16 06:32:30;;;;;;;7.37;4.30;;;18.80;85.20;;;;;;5218645;27;20355;-58
2024/04/16 06:34:58;;;;;;;9.50;5.30;;;18.90;85.30;;;;;;5245803;27;20303;-59
2024/04/16 06:37:25;;;;;;;8.47;4.13;;;19.10;84.90;;;;;;5244078;27;20283;-59
2024/04/16 06:39:53;;;;;;;6.27;4.73;;;19.30;84.50;;;;;;5246480;27;20253;-58
2024/04/16 06:42:20;;;;;;;7.87;4.83;;;19.50;84.30;;;;;;5246121;27;20245;-59
2024/04/16 06:44:48;;;;;;;11.10;4.60;;;19.70;83.90;;;;;;5241049;27;20248;-59
2024/04/16 06:47:16;;;;;;;11.63;5.07;;;20.00;83.20;;;;;;5242716;27;20248;-59
2024/04/16 06:49:44;;;;;;;9.00;4.33;;;20.20;82.10;;;;;;5246329;27;20291;-58
2024/04/16 06:52:12;;;;;;;8.73;5.50;;;20.50;81.20;;;;;;5243435;27;20305;-58
2024/04/16 06:54:41;;;;;;;7.23;4.60;;;20.70;80.60;;;;;;5245632;27;20350;-59
2024/04/16 06:57:08;;;;;;;9.63;4.60;;;20.90;79.70;;;;;;5244131;27;20244;-58
2024/04/16 06:59:36;;;;;;;10.20;4.73;;;21.20;78.80;;;;;;5244168;27;20253;-59
2024/04/16 07:02:03;;;;;;;10.63;5.43;;;21.40;77.90;;;;;;5241788;27;20248;-60
2024/04/16 07:04:30;;;;;;;15.10;5.13;;;21.50;77.00;;;;;;5244268;27;20244;-58
2024/04/16 07:06:58;;;;;;;11.10;5.50;;;21.70;76.10;;;;;;5245780;27;20311;-59
2024/04/16 07:09:30;;;;;;;6.83;4.50;;;21.90;75.70;;;;;;5188014;27;20269;-59
2024/04/16 07:11:57;;;;;;;16.57;6.00;;;22.10;75.40;;;;;;5243244;27;20245;-59
2024/04/16 07:14:24;;;;;;;11.40;5.30;;;22.20;74.60;;;;;;5245059;27;20252;-59
2024/04/16 07:16:53;;;;;;;8.73;4.40;;;22.30;74.70;;;;;;5241215;27;20245;-59
2024/04/16 07:19:21;;;;;;;14.43;5.30;;;22.40;73.70;;;;;;5216985;27;20316;-59
2024/04/16 07:21:48;;;;;;;15.00;4.87;;;22.40;73.30;;;;;;5240387;27;20385;-59
2024/04/16 07:24:16;;;;;;;9.73;4.70;;;22.40;73.20;;;;;;5217513;27;20257;-59
2024/04/16 07:26:43;;;;;;;12.13;5.20;;;22.30;73.20;;;;;;5243680;27;20765;-59
2024/04/16 07:29:10;;;;;;;16.13;5.20;;;22.30;73.80;;;;;;5217769;27;20355;-59
2024/04/16 07:31:37;;;;;;;12.37;5.23;;;22.20;73.90;;;;;;5242676;27;20261;-59
2024/04/16 07:34:14;;;;;;;12.70;4.60;;;22.20;74.10;;;;;;5242209;27;20264;-59
2024/04/16 07:36:42;;;;;;;11.63;4.53;;;22.20;74.20;;;;;;5241108;27;20340;-58
2024/04/16 07:39:10;;;;;;;17.20;4.43;;;22.20;74.30;;;;;;5192589;27;20341;-59
2024/04/16 07:41:38;;;;;;;10.10;4.37;;;22.20;74.50;;;;;;5223049;27;20301;-59
2024/04/16 07:44:05;;;;;;;15.70;5.10;;;22.10;74.40;;;;;;5244424;27;20693;-60
2024/04/16 07:46:33;;;;;;;8.30;4.47;;;22.20;74.20;;;;;;5243439;27;20308;-58
2024/04/16 07:49:01;;;;;;;10.77;4.07;;;22.10;74.40;;;;;;5212383;27;20264;-58
2024/04/16 07:51:29;;;;;;;13.17;4.63;;;22.10;74.70;;;;;;5244719;27;20296;-59
2024/04/16 07:53:56;;;;;;;16.33;4.50;;;22.10;75.10;;;;;;5240827;27;20292;-58
2024/04/16 07:56:23;;;;;;;11.70;4.20;;;22.10;75.00;;;;;;5238292;27;20710;-60
2024/04/16 07:58:51;;;;;;;7.30;3.93;;;22.30;75.40;;;;;;5244929;27;20303;-61
2024/04/16 08:01:18;;;;;;;9.47;3.50;;;22.40;75.50;;;;;;5243768;27;20244;-60
2024/04/16 08:03:46;;;;;;;13.33;3.90;;;22.50;75.30;;;;;;5214293;27;20248;-59
2024/04/16 08:06:13;;;;;;;11.10;3.87;;;22.70;74.60;;;;;;5244169;27;20264;-59
2024/04/16 08:08:41;;;;;;;12.20;3.63;;;22.80;73.70;;;;;;5243053;27;20252;-59
2024/04/16 08:11:08;;;;;;;11.70;4.20;;;22.90;73.60;;;;;;5243442;27;20279;-58
2024/04/16 08:13:36;;;;;;;7.77;3.83;;;22.90;73.60;;;;;;5238215;27;20344;-61
2024/04/16 08:16:05;;;;;;;8.27;3.23;;;23.10;72.50;;;;;;5244750;27;20549;-59
2024/04/16 08:18:35;;;;;;;8.53;4.40;;;23.20;71.60;;;;;;5197078;27;20252;-60
2024/04/16 08:21:03;;;;;;;8.40;4.07;;;23.30;71.50;;;;;;5242450;27;20248;-59
2024/04/16 08:23:30;;;;;;;13.07;4.77;;;23.30;71.20;;;;;;5208944;27;20265;-60
2024/04/16 08:26:02;;;;;;;12.27;4.43;;;23.40;71.30;;;;;;5243297;27;20252;-60
2024/04/16 08:28:35;;;;;;;5.97;2.90;;;23.60;70.90;;;;;;5214949;27;20303;-60
2024/04/16 08:31:04;;;;;;;13.60;3.73;;;23.80;70.70;;;;;;5240627;27;20665;-59
2024/04/16 08:33:31;;;;;;;10.10;3.50;;;24.00;70.60;;;;;;5242129;27;20722;-60
2024/04/16 08:35:59;;;;;;;11.57;3.83;;;24.10;69.70;;;;;;5211811;27;20252;-60
2024/04/16 08:38:27;;;;;;;13.03;4.17;;;24.20;69.00;;;;;;5244196;27;20570;-61
2024/04/16 08:40:56;;;;;;;12.10;4.63;;;24.30;69.00;;;;;;5246837;27;20718;-58
2024/04/16 08:43:25;;;;;;;8.77;3.53;;;24.40;68.60;;;;;;5217730;27;20304;-59
2024/04/16 08:45:54;;;;;;;13.17;3.97;;;24.50;67.10;;;;;;5245183;27;20252;-60
2024/04/16 08:48:22;;;;;;;11.03;3.73;;;24.60;67.20;;;;;;5214187;27;20296;-60
2024/04/16 08:50:50;;;;;;;9.27;3.73;;;24.50;68.20;;;;;;5214517;27;20421;-61
2024/04/16 08:53:19;;;;;;;11.00;4.37;;;24.70;67.20;;;;;;5247008;27;20319;-61
2024/04/16 08:55:47;;;;;;;14.43;3.63;;;24.80;66.90;;;;;;5207192;27;20269;-59
2024/04/16 08:58:17;;;;;;;8.87;4.30;;;24.90;66.60;;;;;;5244014;27;20593;-60
2024/04/16 09:00:46;;;;;;;12.77;3.83;;;25.00;65.90;;;;;;5245649;27;20249;-60
2024/04/16 09:03:14;;;;;;;11.60;4.13;;;25.10;65.40;;;;;;5190819;27;20283;-59
2024/04/16 09:05:42;;;;;;;11.80;3.90;;;25.20;65.50;;;;;;5244806;27;20706;-60
2024/04/16 09:08:10;;;;;;;10.13;4.43;;;25.40;65.30;;;;;;5216576;27;20256;-60
2024/04/16 09:10:39;;;;;;;12.00;4.57;;;25.40;64.90;;;;;;5211503;27;20363;-59
2024/04/16 09:13:11;;;;;;;11.00;3.37;;;25.50;64.70;;;;;;5216892;27;20315;-60
2024/04/16 09:15:40;;;;;;;10.57;3.50;;;25.50;65.00;;;;;;5244116;27;20256;-60
2024/04/16 09:18:09;;;;;;;15.33;4.23;;;25.50;64.10;;;;;;5219599;27;20271;-60
2024/04/16 09:20:36;;;;;;;9.37;4.13;;;25.60;63.50;;;;;;5246124;27;20260;-60
2024/04/16 09:23:04;;;;;;;11.20;3.83;;;25.60;64.10;;;;;;5216790;27;20252;-60
2024/04/16 09:25:38;;;;;;;11.50;3.37;;;25.70;63.70;;;;;;5209737;27;20338;-60
2024/04/16 09:28:06;;;;;;;10.73;4.03;;;25.70;63.50;;;;;;5242300;27;20256;-60
2024/04/16 09:30:33;;;;;;;11.80;3.77;;;25.80;63.10;;;;;;5246557;27;20610;-60
2024/04/16 09:33:03;;;;;;;14.47;4.60;;;26.00;63.70;;;;;;5244778;27;20607;-60
2024/04/16 09:35:41;;;;;;;12.43;4.13;;;26.10;64.20;;;;;;5244715;27;20292;-60
2024/04/16 09:38:09;;;;;;;11.17;3.73;;;26.30;64.10;;;;;;5242062;27;20761;-60
2024/04/16 09:40:37;;;;;;;11.47;4.63;;;26.40;63.70;;;;;;5222040;27;20267;-60
2024/04/16 09:43:05;;;;;;;14.53;4.40;;;26.60;63.10;;;;;;5187666;27;20341;-60
2024/04/16 09:45:35;;;;;;;12.47;4.33;;;26.70;62.40;;;;;;5240821;27;20246;-61
2024/04/16 09:48:04;;;;;;;9.60;4.10;;;26.90;62.40;;;;;;5244380;27;20745;-61
2024/04/16 09:50:35;;;;;;;9.93;4.00;;;27.00;61.50;;;;;;5241125;27;20598;-61
2024/04/16 09:53:22;;;;;;;11.13;4.33;;;27.10;61.40;;;;;;5246516;27;20251;-59
2024/04/16 09:55:52;;;;;;;13.37;4.57;;;27.20;59.80;;;;;;5247292;27;20554;-60
2024/04/16 09:58:21;;;;;;;14.43;4.20;;;27.20;59.00;;;;;;5212428;27;20287;-60
2024/04/16 10:00:51;;;;;;;7.23;3.67;;;27.20;59.10;;;;;;5244477;27;20336;-61
2024/04/16 10:03:21;;;;;;;10.47;3.73;;;27.20;59.00;;;;;;5240146;27;20323;-61
2024/04/16 10:05:49;;;;;;;9.37;4.40;;;27.30;59.50;;;;;;5246630;27;20259;-59
2024/04/16 10:08:16;;;;;;;11.90;3.50;;;27.30;58.50;;;;;;5201892;27;20279;-60
2024/04/16 10:10:45;;;;;;;11.53;3.67;;;27.30;58.20;;;;;;5213286;27;20298;-61
2024/04/16 10:13:14;;;;;;;9.83;3.40;;;27.30;57.90;;;;;;5245068;27;20710;-60
2024/04/16 10:15:45;;;;;;;12.30;3.83;;;27.40;57.40;;;;;;5217250;27;20668;-59
2024/04/16 10:18:12;;;;;;;9.60;3.77;;;27.40;57.00;;;;;;5244246;27;20248;-61
2024/04/16 10:20:57;;;;;;;13.53;3.17;;;27.50;58.00;;;;;;5240385;27;20614;-60
2024/04/16 10:23:29;;;;;;;9.63;3.60;;;27.60;58.70;;;;;;5240437;27;20245;-60
2024/04/16 10:25:57;;;;;;;7.60;3.63;;;27.70;59.00;;;;;;5244210;27;20616;-60
2024/04/16 10:28:39;;;;;;;9.43;3.40;;;27.90;58.40;;;;;;5187691;27;20288;-60
2024/04/16 10:31:10;;;;;;;6.03;3.17;;;28.00;58.00;;;;;;5238612;27;20255;-59
2024/04/16 10:33:39;;;;;;;9.50;3.37;;;28.10;57.70;;;;;;5246916;27;20613;-60
2024/04/16 10:36:07;;;;;;;9.63;3.47;;;28.30;56.20;;;;;;5216212;27;21057;-60
2024/04/16 10:38:38;;;;;;;11.80;3.77;;;28.30;54.90;;;;;;5212111;27;20748;-60
2024/04/16 10:41:06;;;;;;;9.43;3.30;;;28.40;55.10;;;;;;5188776;27;20256;-61
2024/04/16 10:43:41;;;;;;;9.13;4.10;;;28.40;55.30;;;;;;5245319;27;20272;-62
2024/04/16 10:46:09;;;;;;;10.17;3.53;;;28.50;55.70;;;;;;5246113;27;20251;-60
2024/04/16 10:48:37;;;;;;;13.50;3.43;;;28.50;55.80;;;;;;5242243;27;20664;-60
2024/04/16 10:51:12;;;;;;;11.07;3.30;;;28.60;55.50;;;;;;5191959;27;20248;-61
2024/04/16 10:53:41;;;;;;;8.57;4.03;;;28.60;55.40;;;;;;5217507;27;20294;-60
2024/04/16 10:56:09;;;;;;;8.27;3.60;;;28.80;55.30;;;;;;5245957;27;20332;-60
2024/04/16 10:58:37;;;;;;;10.77;3.20;;;28.80;54.50;;;;;;5244692;27;20256;-60
2024/04/16 11:01:06;;;;;;;8.87;3.10;;;28.80;55.10;;;;;;5243448;27;20715;-60
2024/04/16 11:03:34;;;;;;;13.07;2.97;;;28.90;55.30;;;;;;5246067;27;20260;-60
2024/04/16 11:06:02;;;;;;;11.13;3.57;;;29.00;54.60;;;;;;5183520;27;20241;-62
2024/04/16 11:08:31;;;;;;;6.80;2.57;;;29.00;54.50;;;;;;5239365;27;20325;-61
2024/04/16 11:11:00;;;;;;;9.90;3.37;;;29.10;53.60;;;;;;5242649;27;20330;-60
2024/04/16 11:13:27;;;;;;;11.60;3.60;;;29.10;53.00;;;;;;5245145;27;20295;-61
2024/04/16 11:15:56;;;;;;;10.90;2.57;;;29.10;52.20;;;;;;5215866;27;20317;-61
2024/04/16 11:18:25;;;;;;;10.10;3.10;;;29.10;52.10;;;;;;5212144;27;20356;-60
2024/04/16 11:20:53;;;;;;;9.07;2.97;;;29.20;51.80;;;;;;5206939;27;20321;-60
2024/04/16 11:23:21;;;;;;;3.90;2.70;;;29.20;51.30;;;;;;5215598;27;20699;-61
2024/04/16 11:25:49;;;;;;;10.07;2.80;;;29.20;50.90;;;;;;5211244;27;20416;-61
2024/04/16 11:28:17;;;;;;;7.50;2.37;;;29.20;50.60;;;;;;5212670;27;20249;-60
2024/04/16 11:30:55;;;;;;;7.60;2.63;;;29.20;50.10;;;;;;5207415;27;20245;-61
2024/04/16 11:33:24;;;;;;;7.83;2.70;;;29.30;50.40;;;;;;5212219;27;20245;-60
2024/04/16 11:36:10;;;;;;;13.77;3.03;;;29.30;49.40;;;;;;5209506;27;20249;-61
2024/04/16 11:38:41;;;;;;;8.33;2.13;;;29.40;46.30;;;;;;5207524;27;20254;-61
2024/04/16 11:41:09;;;;;;;5.23;1.60;;;29.20;43.60;;;;;;5209800;27;20262;-60
2024/04/16 11:43:41;;;;;;;8.43;2.10;;;29.00;43.40;;;;;;5208568;27;20309;-60
2024/04/16 11:46:12;;;;;;;17.40;3.43;;;28.80;44.00;;;;;;5207207;27;20288;-61
2024/04/16 11:48:44;;;;;;;6.17;2.23;;;28.70;43.80;;;;;;5209576;27;20305;-61
2024/04/16 11:51:14;;;;;;;3.20;1.53;;;28.70;44.20;;;;;;5207677;27;20393;-60
2024/04/16 11:53:43;;;;;;;19.60;3.30;;;28.50;43.70;;;;;;5206875;27;20751;-61
2024/04/16 11:56:11;;;;;;;7.90;2.03;;;28.50;43.30;;;;;;5211929;27;20313;-60
2024/04/16 11:58:43;;;;;;;6.43;1.90;;;28.40;44.20;;;;;;5182575;27;20305;-60
2024/04/16 12:01:11;;;;;;;4.53;1.40;;;28.40;44.10;;;;;;5205747;27;20561;-60
2024/04/16 12:03:41;;;;;;;5.67;1.53;;;28.40;42.40;;;;;;5182802;27;20372;-60
2024/04/16 12:06:09;;;;;;;4.80;1.60;;;28.50;42.50;;;;;;5212822;27;20361;-60
2024/04/16 12:08:37;;;;;;;5.97;1.67;;;28.50;41.80;;;;;;5179854;27;20266;-61
2024/04/16 12:11:06;;;;;;;9.97;1.97;;;28.50;39.00;;;;;;5197540;27;20288;-60
2024/04/16 12:13:34;;;;;;;5.67;1.57;;;28.40;39.20;;;;;;5211895;27;20254;-60
2024/04/16 12:16:01;;;;;;;3.70;1.33;;;28.30;40.80;;;;;;5201325;27;20277;-61
2024/04/16 12:18:30;;;;;;;9.27;2.03;;;28.30;41.40;;;;;;5205066;27;20668;-60
2024/04/16 12:20:57;;;;;;;7.17;1.30;;;28.40;41.40;;;;;;5205719;27;20257;-60
2024/04/16 12:23:25;;;;;;;7.67;1.50;;;28.40;40.10;;;;;;5210690;27;20296;-61
2024/04/16 12:25:52;;;;;;;5.03;1.50;;;28.50;40.30;;;;;;5180888;27;20691;-60
2024/04/16 12:28:20;;;;;;;9.00;2.10;;;28.50;40.90;;;;;;5211941;27;20257;-61
2024/04/16 12:30:49;;;;;;;5.03;1.70;;;28.50;41.80;;;;;;5205601;27;20329;-61
2024/04/16 12:33:16;;;;;;;4.53;1.43;;;28.50;42.60;;;;;;5209509;27;20265;-61
2024/04/16 12:35:45;;;;;;;5.60;2.00;;;28.50;42.80;;;;;;5208546;27;20284;-60
2024/04/16 12:38:13;;;;;;;8.43;1.60;;;28.50;43.70;;;;;;5215759;27;20632;-60
2024/04/16 12:40:44;;;;;;;6.17;1.00;;;28.50;40.40;;;;;;5204999;27;20310;-60
2024/04/16 12:43:12;;;;;;;4.80;1.53;;;28.50;38.30;;;;;;5206054;27;20633;-60
2024/04/16 12:45:39;;;;;;;6.97;1.07;;;28.40;38.20;;;;;;5209864;27;20249;-60
2024/04/16 12:48:07;;;;;;;14.50;1.80;;;28.40;38.40;;;;;;5183266;27;20707;-62
2024/04/16 12:50:40;;;;;;;6.53;1.47;;;28.40;35.70;;;;;;5209014;27;20249;-62